createdAt,value
2022-09-24T00:02:22.203Z,13.30
2022-09-24T00:09:23.335Z,13.20
2022-09-24T00:16:26.102Z,13.20
2022-09-24T00:23:27.558Z,13.10
2022-09-24T00:30:28.470Z,13.10
2022-09-24T00:37:28.768Z,13.00
2022-09-24T00:44:41.521Z,13.00
2022-09-24T00:51:45.477Z,12.90
2022-09-24T00:58:52.333Z,12.90
2022-09-24T01:05:53.081Z,12.80
2022-09-24T01:13:03.614Z,12.80
2022-09-24T01:20:32.443Z,12.80
2022-09-24T01:27:42.525Z,12.90
2022-09-24T01:34:47.823Z,12.90
2022-09-24T01:41:48.998Z,12.80
2022-09-24T01:48:50.295Z,12.80
2022-09-24T01:55:59.526Z,12.80
2022-09-24T02:03:17.240Z,12.80
2022-09-24T02:10:20.249Z,12.80
2022-09-24T02:17:23.979Z,12.70
2022-09-24T02:24:47.707Z,12.70
2022-09-24T02:31:52.509Z,12.70
2022-09-24T02:38:53.289Z,12.70
2022-09-24T02:45:54.401Z,12.70
2022-09-24T02:52:54.928Z,12.70
2022-09-24T02:59:55.619Z,12.60
2022-09-24T03:06:56.229Z,12.70
2022-09-24T03:13:56.492Z,12.60
2022-09-24T03:21:04.939Z,12.50
2022-09-24T03:28:05.922Z,12.50
2022-09-24T03:35:07.057Z,12.50
2022-09-24T03:42:07.621Z,12.40
2022-09-24T03:49:07.983Z,12.40
2022-09-24T03:56:09.632Z,12.40
2022-09-24T04:03:10.506Z,12.40
2022-09-24T04:10:12.252Z,12.40
2022-09-24T04:17:14.100Z,12.30
2022-09-24T04:24:15.207Z,12.30
2022-09-24T04:31:15.918Z,12.30
2022-09-24T04:38:16.593Z,12.30
2022-09-24T04:45:20.844Z,12.30
2022-09-24T04:52:25.030Z,12.20
2022-09-24T04:59:26.062Z,12.20
2022-09-24T05:06:26.101Z,12.20
2022-09-24T05:13:28.825Z,12.20
2022-09-24T05:20:29.381Z,12.10
2022-09-24T05:27:29.699Z,12.10
2022-09-24T05:34:31.107Z,12.10
2022-09-24T05:41:31.937Z,12.00
2022-09-24T05:48:32.644Z,12.00
2022-09-24T05:55:36.277Z,11.90
2022-09-24T06:02:36.781Z,11.90
2022-09-24T06:09:37.411Z,11.90
2022-09-24T06:16:38.342Z,12.00
2022-09-24T06:23:39.850Z,12.00
2022-09-24T06:30:41.165Z,12.10
2022-09-24T06:37:41.688Z,12.20
2022-09-24T06:44:42.461Z,12.20
2022-09-24T06:51:43.340Z,12.30
2022-09-24T06:58:44.183Z,12.40
2022-09-24T07:05:45.147Z,12.50
2022-09-24T07:12:45.929Z,12.60
2022-09-24T07:19:46.310Z,12.70
2022-09-24T07:26:46.734Z,12.80
2022-09-24T07:33:47.214Z,12.90
2022-09-24T07:40:47.963Z,13.00
2022-09-24T07:47:48.839Z,13.10
2022-09-24T07:54:54.361Z,13.20
2022-09-24T08:01:55.343Z,13.30
2022-09-24T08:08:57.189Z,13.50
2022-09-24T08:16:01.951Z,13.60
2022-09-24T08:23:12.724Z,13.80
2022-09-24T08:30:14.164Z,13.90
2022-09-24T08:37:15.731Z,14.00
2022-09-24T08:44:50.363Z,14.10
2022-09-24T08:51:58.275Z,14.20
2022-09-24T08:59:01.592Z,14.30
2022-09-24T09:06:27.125Z,14.50
2022-09-24T09:13:40.798Z,14.60
2022-09-24T09:20:43.857Z,14.90
2022-09-24T09:27:44.239Z,15.00
2022-09-24T09:34:50.780Z,15.10
2022-09-24T09:42:04.079Z,15.30
2022-09-24T09:49:08.392Z,15.60
2022-09-24T09:56:10.387Z,15.80
2022-09-24T10:03:49.647Z,16.00
2022-09-24T10:10:57.657Z,16.30
2022-09-24T10:18:00.893Z,16.50
2022-09-24T10:25:02.405Z,16.80
2022-09-24T10:32:05.835Z,17.00
2022-09-24T10:39:15.382Z,17.10
2022-09-24T10:46:29.746Z,17.20
2022-09-24T10:53:49.957Z,17.40
2022-09-24T11:01:19.247Z,17.50
2022-09-24T11:08:46.260Z,17.60
2022-09-24T11:15:52.779Z,17.60
2022-09-24T11:23:03.109Z,17.60
2022-09-24T11:30:14.326Z,17.60
2022-09-24T11:37:29.717Z,17.70
2022-09-24T11:44:56.322Z,17.80
2022-09-24T11:52:11.823Z,17.80
2022-09-24T11:59:31.630Z,17.70
2022-09-24T12:06:58.283Z,17.70
2022-09-24T12:14:19.889Z,17.70
2022-09-24T12:21:32.457Z,17.80
2022-09-24T12:29:02.591Z,17.90
2022-09-24T12:36:26.245Z,17.80
2022-09-24T12:43:47.803Z,17.90
2022-09-24T12:50:57.982Z,17.90
2022-09-24T12:58:07.647Z,17.80
2022-09-24T13:05:28.117Z,17.90
2022-09-24T13:12:33.329Z,17.80
2022-09-24T13:19:44.329Z,17.70
2022-09-24T13:26:45.147Z,17.60
2022-09-24T13:33:49.381Z,17.60
2022-09-24T13:40:56.847Z,17.50
2022-09-24T13:48:04.072Z,17.40
2022-09-24T13:55:27.999Z,17.40
2022-09-24T14:02:36.190Z,17.40
2022-09-24T14:09:37.071Z,17.40
2022-09-24T14:16:37.604Z,17.50
2022-09-24T14:23:48.957Z,17.60
2022-09-24T14:30:53.525Z,17.60
2022-09-24T14:38:00.414Z,17.70
2022-09-24T14:45:04.438Z,17.80
2022-09-24T14:52:04.913Z,17.80
2022-09-24T14:59:15.478Z,17.70
2022-09-24T15:06:23.638Z,17.80
2022-09-24T15:13:35.789Z,17.80
2022-09-24T15:20:36.955Z,17.60
2022-09-24T15:27:39.240Z,17.50
2022-09-24T15:34:39.494Z,17.30
2022-09-24T15:41:40.175Z,17.20
2022-09-24T15:48:40.730Z,17.10
2022-09-24T15:55:42.447Z,17.10
2022-09-24T16:02:46.050Z,17.00
2022-09-24T16:09:46.784Z,16.90
2022-09-24T16:16:47.353Z,16.80
2022-09-24T16:23:53.112Z,16.80
2022-09-24T16:30:53.930Z,16.70
2022-09-24T16:37:54.569Z,16.60
2022-09-24T16:44:55.152Z,16.50
2022-09-24T16:51:55.874Z,16.40
2022-09-24T16:58:56.720Z,16.30
2022-09-24T17:05:56.884Z,16.20
2022-09-24T17:12:57.861Z,16.10
2022-09-24T17:19:57.949Z,16.10
2022-09-24T17:26:58.607Z,16.00
2022-09-24T17:34:02.402Z,16.00
2022-09-24T17:41:11.651Z,16.00
2022-09-24T17:48:12.945Z,15.90
2022-09-24T17:55:15.762Z,15.90
2022-09-24T18:02:16.274Z,15.90
2022-09-24T18:09:18.673Z,15.80
2022-09-24T18:16:21.366Z,15.80
2022-09-24T18:23:21.917Z,15.80
2022-09-24T18:30:22.298Z,15.70
2022-09-24T18:37:22.657Z,15.60
2022-09-24T18:44:23.241Z,15.60
2022-09-24T18:51:27.445Z,15.50
2022-09-24T18:58:28.473Z,15.40
2022-09-24T19:05:29.620Z,15.30
2022-09-24T19:12:30.076Z,15.30
2022-09-24T19:19:31.508Z,15.10
2022-09-24T19:26:34.283Z,15.10
2022-09-24T19:33:35.150Z,15.10
2022-09-24T19:40:35.441Z,15.00
2022-09-24T19:47:35.835Z,15.00
2022-09-24T19:54:37.348Z,14.90
2022-09-24T20:01:38.034Z,14.80
2022-09-24T20:08:39.851Z,14.90
2022-09-24T20:15:41.487Z,14.80
2022-09-24T20:22:41.837Z,14.80
2022-09-24T20:29:43.723Z,14.70
2022-09-24T20:36:44.484Z,14.70
2022-09-24T20:43:45.839Z,14.60
2022-09-24T20:50:46.568Z,14.60
2022-09-24T20:57:49.180Z,14.60
2022-09-24T21:04:50.140Z,14.50
2022-09-24T21:11:53.103Z,14.50
2022-09-24T21:18:56.679Z,14.40
2022-09-24T21:26:09.704Z,14.30
2022-09-24T21:33:10.529Z,14.30
2022-09-24T21:40:11.024Z,14.30
2022-09-24T21:47:11.527Z,14.20
2022-09-24T21:54:16.935Z,14.10
2022-09-24T22:01:25.782Z,14.00
2022-09-24T22:08:30.600Z,14.00
2022-09-24T22:15:35.652Z,13.90
2022-09-24T22:22:36.065Z,13.80
2022-09-24T22:29:36.470Z,13.80
2022-09-24T22:36:37.106Z,13.70
2022-09-24T22:43:38.085Z,13.70
2022-09-24T22:50:38.683Z,13.60
2022-09-24T22:57:39.280Z,13.60
2022-09-24T23:04:40.027Z,13.60
2022-09-24T23:11:40.796Z,13.50
2022-09-24T23:18:43.266Z,13.50
2022-09-24T23:25:44.050Z,13.50
2022-09-24T23:32:44.633Z,13.50
2022-09-24T23:39:45.513Z,13.50
2022-09-24T23:46:45.764Z,13.50
2022-09-24T23:53:46.386Z,13.50
